Time;durP1;ratioP1;P1;durP2;ratioP2;P2;SDS_P1;SDS_P2;PMS_P1;PMS_P2;Temp;Humidity;BMP_temperature;BMP_pressure;BME280_temperature;BME280_humidity;BME280_pressure;Samples;Min_cycle;Max_cycle;Signal;HPM_P1;HPM_P2
2022/06/29 00:00:26;;;;;;;14.18;6.50;;;12.50;99.90;;;;;;5051980;28;20040;-70
2022/06/29 00:02:54;;;;;;;11.27;6.93;;;12.70;99.90;;;;;;5043491;28;20021;-70
2022/06/29 00:05:23;;;;;;;10.80;6.30;;;12.70;99.90;;;;;;5034293;28;20655;-70
2022/06/29 00:07:52;;;;;;;9.65;6.43;;;12.80;99.90;;;;;;5060971;28;20022;-70
2022/06/29 00:10:20;;;;;;;10.20;6.20;;;12.90;99.90;;;;;;5035506;28;20028;-70
2022/06/29 00:12:48;;;;;;;13.40;6.97;;;13.00;99.90;;;;;;5047181;28;20023;-70
2022/06/29 00:15:18;;;;;;;17.23;7.45;;;12.70;99.90;;;;;;5053938;28;20021;-70
2022/06/29 00:17:45;;;;;;;17.10;6.40;;;12.60;99.90;;;;;;5040779;28;20075;-70
2022/06/29 00:20:14;;;;;;;12.50;6.72;;;12.80;99.90;;;;;;5061228;28;20037;-70
2022/06/29 00:22:42;;;;;;;12.82;6.80;;;12.80;99.90;;;;;;5041548;28;20047;-70
2022/06/29 00:25:12;;;;;;;18.80;6.68;;;12.90;99.90;;;;;;5044399;28;20021;-71
2022/06/29 00:27:40;;;;;;;14.98;5.38;;;13.00;99.90;;;;;;5049712;28;20485;-71
2022/06/29 00:30:08;;;;;;;13.23;5.15;;;13.20;99.90;;;;;;5045160;28;20511;-70
2022/06/29 00:32:36;;;;;;;8.82;5.70;;;13.20;99.90;;;;;;5057229;28;20443;-72
2022/06/29 00:35:04;;;;;;;11.25;7.10;;;13.30;99.90;;;;;;5052534;28;20028;-71
2022/06/29 00:37:31;;;;;;;11.55;5.22;;;13.20;99.90;;;;;;5037696;28;20029;-71
2022/06/29 00:39:59;;;;;;;7.70;4.40;;;13.10;99.90;;;;;;5043063;28;20017;-70
2022/06/29 00:42:26;;;;;;;8.70;4.63;;;13.30;99.90;;;;;;5056060;28;20033;-70
2022/06/29 00:44:54;;;;;;;7.90;3.28;;;13.20;99.90;;;;;;5048673;28;20025;-69
2022/06/29 00:47:22;;;;;;;5.22;2.75;;;13.30;99.90;;;;;;5044538;28;20551;-70
2022/06/29 00:49:49;;;;;;;7.10;3.40;;;13.30;99.90;;;;;;5047049;28;20094;-69
2022/06/29 00:52:20;;;;;;;15.40;3.75;;;13.50;99.90;;;;;;5052934;28;20060;-70
2022/06/29 00:54:56;;;;;;;6.05;3.25;;;13.70;99.90;;;;;;5038965;28;20509;-69
2022/06/29 00:57:28;;;;;;;6.38;2.47;;;13.80;99.90;;;;;;5036593;28;20065;-69
2022/06/29 00:59:58;;;;;;;15.50;2.60;;;13.80;99.90;;;;;;5054086;28;20028;-69
2022/06/29 01:02:33;;;;;;;5.78;2.38;;;13.60;99.90;;;;;;5041671;28;20025;-69
2022/06/29 01:05:01;;;;;;;7.03;2.05;;;13.70;99.90;;;;;;5041453;28;20032;-69
2022/06/29 01:07:34;;;;;;;7.13;2.05;;;13.80;99.90;;;;;;5048608;28;20079;-69
2022/06/29 01:10:01;;;;;;;5.38;1.92;;;13.80;99.90;;;;;;5055109;28;20059;-70
2022/06/29 01:12:29;;;;;;;6.13;1.73;;;13.70;99.90;;;;;;5039367;28;20042;-69
2022/06/29 01:14:56;;;;;;;3.17;2.05;;;13.60;99.90;;;;;;5047705;28;20029;-68
2022/06/29 01:17:24;;;;;;;4.95;1.58;;;13.70;99.90;;;;;;5054911;28;20024;-69
2022/06/29 01:19:52;;;;;;;4.90;1.42;;;13.80;99.90;;;;;;5051572;28;20107;-69
2022/06/29 01:22:22;;;;;;;4.53;1.30;;;13.90;99.90;;;;;;5043841;28;20056;-69
2022/06/29 01:24:50;;;;;;;5.35;1.58;;;14.20;99.90;;;;;;5036228;28;20068;-69
2022/06/29 01:27:19;;;;;;;7.40;1.20;;;14.10;99.90;;;;;;5032721;28;20028;-69
2022/06/29 01:29:46;;;;;;;6.00;1.10;;;14.20;99.90;;;;;;5041293;28;20022;-69
2022/06/29 01:32:14;;;;;;;5.28;1.08;;;14.50;99.90;;;;;;5048846;28;20016;-69
2022/06/29 01:34:41;;;;;;;3.35;0.93;;;14.60;99.90;;;;;;5051994;28;20481;-68
2022/06/29 01:37:09;;;;;;;5.43;0.73;;;14.70;99.90;;;;;;5046878;28;20078;-68
2022/06/29 01:39:37;;;;;;;3.08;0.80;;;14.90;99.90;;;;;;5037607;28;20052;-69
2022/06/29 01:42:05;;;;;;;2.45;0.82;;;14.90;99.90;;;;;;5038084;28;20049;-68
2022/06/29 01:44:34;;;;;;;2.92;0.68;;;15.10;99.90;;;;;;5046476;28;20390;-68
2022/06/29 01:47:02;;;;;;;3.38;0.80;;;15.10;99.90;;;;;;5038272;28;20033;-69
2022/06/29 01:49:29;;;;;;;4.53;1.10;;;15.30;99.90;;;;;;5040085;28;20033;-70
2022/06/29 01:51:59;;;;;;;3.25;0.50;;;15.30;99.90;;;;;;5046090;28;20021;-70
2022/06/29 01:54:27;;;;;;;3.97;0.73;;;15.30;99.90;;;;;;5045852;28;20101;-70
2022/06/29 01:56:57;;;;;;;5.60;1.02;;;15.30;99.90;;;;;;5037576;28;20047;-70
2022/06/29 01:59:24;;;;;;;2.63;1.25;;;15.70;99.90;;;;;;5060049;28;20032;-69
2022/06/29 02:01:51;;;;;;;2.65;0.90;;;15.70;99.90;;;;;;5032543;28;20021;-70
2022/06/29 02:04:18;;;;;;;5.30;0.70;;;15.70;99.90;;;;;;5036168;28;20512;-70
2022/06/29 02:06:46;;;;;;;2.53;0.60;;;15.60;99.90;;;;;;5033922;28;20028;-70
2022/06/29 02:09:13;;;;;;;3.22;1.05;;;15.70;99.90;;;;;;5042553;28;20072;-69
2022/06/29 02:11:41;;;;;;;4.82;0.70;;;16.00;99.90;;;;;;5053040;28;20064;-69
2022/06/29 02:14:09;;;;;;;4.93;0.70;;;16.20;99.90;;;;;;5032919;28;20112;-69
2022/06/29 02:16:37;;;;;;;2.35;0.90;;;16.30;99.90;;;;;;5032069;28;20079;-69
2022/06/29 02:19:04;;;;;;;3.05;0.60;;;16.60;99.90;;;;;;5035720;28;20108;-69
2022/06/29 02:21:32;;;;;;;3.22;0.50;;;16.70;99.90;;;;;;5039880;28;20029;-69
2022/06/29 02:23:59;;;;;;;8.77;0.90;;;17.10;99.90;;;;;;5031736;28;20037;-69
2022/06/29 02:26:26;;;;;;;5.47;0.98;;;17.90;99.90;;;;;;5036013;28;20100;-69
2022/06/29 02:28:54;;;;;;;2.65;0.50;;;18.20;99.90;;;;;;5033374;28;20029;-69
2022/06/29 02:36:52;;;;;;;2.20;0.57;;;18.60;99.90;;;;;;5032494;28;20044;-69
2022/06/29 02:39:19;;;;;;;1.80;0.30;;;18.90;99.90;;;;;;5032650;28;20028;-70
2022/06/29 02:41:46;;;;;;;1.42;0.28;;;18.60;99.90;;;;;;5032437;28;20071;-69
2022/06/29 02:44:14;;;;;;;1.45;0.32;;;18.40;99.90;;;;;;5035822;28;20056;-70
2022/06/29 02:46:41;;;;;;;3.45;0.43;;;17.90;99.90;;;;;;5037119;28;20401;-69
2022/06/29 02:49:08;;;;;;;4.53;0.30;;;17.50;99.90;;;;;;5032251;28;20053;-69
2022/06/29 02:51:35;;;;;;;1.20;0.45;;;17.50;99.90;;;;;;5033047;28;20071;-69
2022/06/29 02:54:03;;;;;;;3.30;0.20;;;17.80;99.90;;;;;;5030474;28;20030;-69
2022/06/29 02:56:31;;;;;;;1.40;0.30;;;18.10;99.90;;;;;;5036791;28;20559;-69
2022/06/29 02:58:58;;;;;;;3.33;0.75;;;18.30;99.90;;;;;;5033589;28;20029;-69
2022/06/29 03:01:26;;;;;;;3.10;0.40;;;18.20;99.90;;;;;;5035818;28;20022;-69
2022/06/29 03:03:53;;;;;;;3.50;0.65;;;18.10;99.90;;;;;;5043973;28;20064;-69
2022/06/29 03:06:20;;;;;;;3.97;0.30;;;18.10;99.90;;;;;;5040479;28;20481;-70
2022/06/29 03:08:48;;;;;;;1.42;0.50;;;18.10;99.90;;;;;;5036067;28;20075;-70
2022/06/29 03:11:15;;;;;;;4.57;0.63;;;17.70;99.90;;;;;;5049144;28;20028;-69
2022/06/29 03:13:42;;;;;;;2.80;0.30;;;18.00;99.90;;;;;;5053484;28;20684;-68
2022/06/29 03:16:10;;;;;;;1.95;0.40;;;18.00;99.90;;;;;;5047501;28;21608;-69
2022/06/29 03:18:37;;;;;;;2.85;0.60;;;17.70;99.90;;;;;;5035943;28;20562;-69
2022/06/29 03:21:04;;;;;;;2.33;0.35;;;17.10;99.90;;;;;;5058361;28;20021;-69
2022/06/29 03:23:32;;;;;;;1.65;0.30;;;17.00;99.90;;;;;;5044552;28;20033;-69
2022/06/29 03:25:59;;;;;;;1.42;0.30;;;17.40;99.90;;;;;;5056178;28;20040;-69
2022/06/29 03:28:26;;;;;;;1.63;0.22;;;17.70;99.90;;;;;;5041380;28;20028;-69
2022/06/29 03:30:54;;;;;;;2.35;0.32;;;17.50;99.90;;;;;;5045562;28;20029;-69
2022/06/29 03:33:21;;;;;;;7.03;0.40;;;17.40;99.90;;;;;;5040471;28;20537;-69
2022/06/29 03:35:49;;;;;;;3.83;0.30;;;17.50;99.90;;;;;;5044192;28;20037;-69
2022/06/29 03:38:16;;;;;;;2.88;0.25;;;17.30;99.90;;;;;;5043602;28;20045;-69
2022/06/29 03:40:44;;;;;;;2.65;0.30;;;17.10;99.90;;;;;;5065625;28;20025;-70
2022/06/29 03:43:11;;;;;;;2.53;0.40;;;17.00;99.90;;;;;;5050745;28;20025;-69
2022/06/29 03:45:38;;;;;;;2.40;0.68;;;16.90;99.90;;;;;;5049773;28;20025;-69
2022/06/29 03:48:06;;;;;;;3.78;0.70;;;16.80;99.90;;;;;;5058908;28;20439;-69
2022/06/29 03:50:34;;;;;;;3.70;0.70;;;16.90;99.90;;;;;;5043893;28;20486;-69
2022/06/29 03:53:01;;;;;;;3.85;0.50;;;16.80;99.90;;;;;;5043019;28;20025;-69
2022/06/29 03:55:29;;;;;;;5.63;0.57;;;16.90;99.90;;;;;;5038641;28;20045;-69
2022/06/29 03:57:56;;;;;;;2.38;0.50;;;16.80;99.90;;;;;;5051905;28;20040;-69
2022/06/29 04:00:23;;;;;;;3.78;0.50;;;16.80;99.90;;;;;;5056580;28;20056;-69
2022/06/29 04:02:51;;;;;;;4.00;0.30;;;16.90;99.90;;;;;;5055464;28;20024;-69
2022/06/29 04:05:18;;;;;;;2.28;0.45;;;16.90;99.90;;;;;;5046045;28;20108;-69
2022/06/29 04:07:45;;;;;;;1.13;0.30;;;16.80;99.90;;;;;;5043722;28;20104;-69
2022/06/29 04:10:13;;;;;;;3.53;0.47;;;16.80;99.90;;;;;;5047270;28;20025;-69
2022/06/29 04:12:40;;;;;;;1.13;0.52;;;17.00;99.90;;;;;;5049043;28;20389;-69
2022/06/29 04:15:08;;;;;;;3.92;0.88;;;17.00;99.90;;;;;;5060162;28;20024;-69
2022/06/29 04:17:35;;;;;;;2.70;0.68;;;16.90;99.90;;;;;;5039340;28;20116;-69
2022/06/29 04:20:04;;;;;;;4.05;0.77;;;16.80;99.90;;;;;;5065022;28;20052;-69
2022/06/29 04:22:31;;;;;;;1.63;0.30;;;16.80;99.90;;;;;;5045054;28;20354;-69
2022/06/29 04:24:59;;;;;;;2.83;0.30;;;16.70;99.90;;;;;;5055028;28;20024;-69
2022/06/29 04:27:27;;;;;;;2.80;0.52;;;16.70;99.90;;;;;;5049062;28;20504;-69
2022/06/29 04:29:54;;;;;;;2.30;0.95;;;16.60;99.90;;;;;;5043829;28;20076;-69
2022/06/29 04:32:21;;;;;;;2.75;0.65;;;16.60;99.90;;;;;;5037829;28;20017;-69
2022/06/29 04:34:49;;;;;;;3.72;0.38;;;16.60;99.90;;;;;;5040369;28;20514;-70
2022/06/29 04:37:16;;;;;;;1.98;0.22;;;16.50;99.90;;;;;;5040814;28;20101;-69
2022/06/29 04:39:43;;;;;;;4.07;0.65;;;16.50;99.90;;;;;;5048936;28;20041;-69
2022/06/29 04:42:11;;;;;;;2.30;0.30;;;16.50;99.90;;;;;;5035053;28;20439;-68
2022/06/29 04:44:38;;;;;;;1.15;0.30;;;16.50;99.90;;;;;;5045004;28;21409;-69
2022/06/29 04:47:05;;;;;;;7.82;0.93;;;16.60;99.90;;;;;;5058335;28;20040;-69
2022/06/29 04:49:32;;;;;;;2.85;0.65;;;16.50;99.90;;;;;;5040313;28;20476;-68
2022/06/29 04:52:00;;;;;;;1.75;0.20;;;16.50;99.90;;;;;;5043622;28;22055;-68
2022/06/29 04:54:27;;;;;;;1.65;0.17;;;16.50;99.90;;;;;;5043236;28;20478;-69
2022/06/29 04:56:55;;;;;;;5.05;0.30;;;16.50;99.90;;;;;;5035824;28;20545;-68
2022/06/29 04:59:22;;;;;;;3.17;0.30;;;16.50;99.90;;;;;;5050882;28;20029;-68
2022/06/29 05:01:49;;;;;;;2.60;0.52;;;16.40;99.90;;;;;;5043274;28;20028;-68
2022/06/29 05:04:16;;;;;;;2.75;0.68;;;16.40;99.90;;;;;;5050969;28;20470;-69
2022/06/29 05:06:44;;;;;;;2.15;0.30;;;16.30;99.90;;;;;;5047226;28;20074;-69
2022/06/29 05:09:12;;;;;;;1.80;0.55;;;16.30;99.90;;;;;;5044520;28;20021;-69
2022/06/29 05:11:39;;;;;;;2.13;0.30;;;16.20;99.90;;;;;;5044263;28;20063;-69
2022/06/29 05:14:07;;;;;;;1.48;0.28;;;16.20;99.90;;;;;;5035454;28;20537;-69
2022/06/29 05:16:34;;;;;;;3.53;0.52;;;16.10;99.90;;;;;;5042162;28;20049;-69
2022/06/29 05:19:02;;;;;;;1.75;0.40;;;16.00;99.90;;;;;;5046648;28;20025;-69
2022/06/29 05:21:30;;;;;;;1.25;0.22;;;15.90;99.90;;;;;;5038375;28;20048;-69
2022/06/29 05:23:58;;;;;;;4.63;0.60;;;15.90;99.90;;;;;;5053137;28;20033;-69
2022/06/29 05:26:25;;;;;;;2.35;0.32;;;15.80;99.90;;;;;;5034330;28;20108;-69
2022/06/29 05:28:53;;;;;;;2.28;0.25;;;15.80;99.90;;;;;;5054316;28;20033;-69
2022/06/29 05:31:20;;;;;;;2.90;0.40;;;15.70;99.90;;;;;;5045854;28;20103;-69
2022/06/29 05:33:47;;;;;;;2.25;0.30;;;15.80;99.90;;;;;;5048224;28;20032;-69
2022/06/29 05:36:15;;;;;;;2.88;0.60;;;15.70;99.90;;;;;;5048381;28;20028;-68
2022/06/29 05:38:42;;;;;;;2.45;0.45;;;15.70;99.90;;;;;;5050620;28;20025;-69
2022/06/29 05:41:09;;;;;;;2.92;0.32;;;15.60;99.90;;;;;;5046410;28;20021;-68
2022/06/29 05:43:37;;;;;;;5.80;0.40;;;15.50;99.90;;;;;;5040818;28;20038;-69
2022/06/29 05:46:04;;;;;;;2.45;0.35;;;15.50;99.90;;;;;;5040569;28;20052;-69
2022/06/29 05:48:32;;;;;;;4.60;0.35;;;15.50;99.90;;;;;;5046686;28;20034;-68
2022/06/29 05:50:59;;;;;;;1.15;0.30;;;15.50;99.90;;;;;;5037089;28;20151;-69
2022/06/29 05:53:27;;;;;;;3.65;0.50;;;15.40;99.90;;;;;;5040645;28;20028;-68
2022/06/29 05:55:54;;;;;;;1.30;0.20;;;15.40;99.90;;;;;;5042857;28;20633;-68
2022/06/29 05:58:22;;;;;;;3.30;0.70;;;15.30;99.90;;;;;;5046351;28;20029;-68
2022/06/29 06:00:50;;;;;;;2.47;0.65;;;15.30;99.90;;;;;;5039845;28;20032;-69
2022/06/29 06:03:18;;;;;;;1.10;0.20;;;15.30;99.90;;;;;;5033896;28;20028;-69
2022/06/29 06:05:46;;;;;;;1.58;0.40;;;15.30;99.90;;;;;;5047132;28;20025;-69
2022/06/29 06:08:15;;;;;;;3.30;0.40;;;15.20;99.90;;;;;;5041637;28;20429;-69
2022/06/29 06:10:42;;;;;;;1.58;0.30;;;15.10;99.90;;;;;;5042647;28;20052;-69
2022/06/29 06:13:10;;;;;;;4.00;0.60;;;15.00;99.90;;;;;;5037825;28;20400;-69
2022/06/29 06:15:38;;;;;;;4.75;0.60;;;14.90;99.90;;;;;;5046568;28;20045;-69
2022/06/29 06:18:05;;;;;;;2.25;0.40;;;14.90;99.90;;;;;;5038547;28;20060;-69
2022/06/29 06:20:32;;;;;;;2.40;0.40;;;14.90;99.90;;;;;;5038131;28;20099;-68
2022/06/29 06:23:00;;;;;;;2.58;0.30;;;14.80;99.90;;;;;;5042989;28;20037;-69
2022/06/29 06:25:27;;;;;;;1.42;0.30;;;14.80;99.90;;;;;;5037803;28;20413;-69
2022/06/29 06:27:54;;;;;;;3.22;0.77;;;14.80;99.90;;;;;;5042674;28;20111;-69
2022/06/29 06:30:21;;;;;;;2.45;0.50;;;14.70;99.90;;;;;;5050169;28;20171;-69
2022/06/29 06:32:49;;;;;;;0.70;0.30;;;14.70;99.90;;;;;;5042902;28;20374;-69
2022/06/29 06:35:19;;;;;;;6.15;1.27;;;14.70;99.90;;;;;;5052979;28;20029;-69
2022/06/29 06:37:47;;;;;;;3.00;0.60;;;14.60;99.90;;;;;;5057866;28;20048;-69
2022/06/29 06:43:00;;;;;;;5.03;0.40;;;14.60;99.90;;;;;;5046964;28;20056;-69
2022/06/29 06:45:27;;;;;;;6.07;0.65;;;14.60;99.90;;;;;;5050570;28;20029;-69
2022/06/29 06:47:55;;;;;;;3.38;0.50;;;14.50;99.90;;;;;;5051421;28;20032;-69
2022/06/29 06:50:23;;;;;;;2.97;0.50;;;14.50;99.90;;;;;;5048511;28;20107;-69
2022/06/29 06:52:50;;;;;;;3.40;0.80;;;14.50;99.90;;;;;;5053168;28;20067;-69
2022/06/29 06:55:17;;;;;;;2.17;0.68;;;14.50;99.90;;;;;;5057135;28;20071;-69
2022/06/29 06:57:45;;;;;;;4.20;0.80;;;14.50;99.90;;;;;;5045596;28;20076;-69
2022/06/29 07:00:12;;;;;;;4.35;0.52;;;14.50;99.90;;;;;;5043726;28;20064;-69
2022/06/29 07:02:40;;;;;;;2.15;0.50;;;14.50;99.90;;;;;;5041505;28;20111;-69
2022/06/29 07:05:08;;;;;;;3.80;0.45;;;14.50;99.90;;;;;;5047061;28;20392;-69
2022/06/29 07:07:35;;;;;;;1.75;0.40;;;14.50;99.90;;;;;;5043361;28;20499;-70
2022/06/29 07:10:03;;;;;;;4.45;0.50;;;14.40;99.90;;;;;;5045539;28;20017;-71
2022/06/29 07:12:30;;;;;;;2.92;0.70;;;14.40;99.90;;;;;;5049497;28;20491;-70
2022/06/29 07:14:57;;;;;;;2.45;0.77;;;14.40;99.90;;;;;;5050234;28;20032;-71
2022/06/29 07:17:25;;;;;;;3.90;0.55;;;14.30;99.90;;;;;;5050794;28;20031;-71
2022/06/29 07:19:52;;;;;;;2.67;0.45;;;14.20;99.90;;;;;;5053886;28;20059;-71
2022/06/29 07:22:20;;;;;;;2.65;0.40;;;14.10;99.90;;;;;;5043218;28;20039;-70
2022/06/29 07:24:47;;;;;;;0.82;0.40;;;14.00;99.90;;;;;;5065486;28;20396;-68
2022/06/29 07:27:14;;;;;;;2.38;0.47;;;14.00;99.90;;;;;;5060552;28;20033;-71
2022/06/29 07:29:42;;;;;;;2.88;0.52;;;13.90;99.90;;;;;;5069730;28;20120;-70
2022/06/29 07:32:09;;;;;;;2.08;0.60;;;13.80;99.90;;;;;;5045158;28;20033;-70
2022/06/29 07:34:37;;;;;;;2.67;0.47;;;13.80;99.90;;;;;;5049787;28;20529;-71
2022/06/29 07:37:04;;;;;;;2.60;0.70;;;13.80;99.90;;;;;;5049680;28;20101;-71
2022/06/29 07:39:32;;;;;;;3.30;0.60;;;13.80;99.90;;;;;;5045521;28;20401;-71
2022/06/29 07:41:59;;;;;;;3.75;0.50;;;13.80;99.90;;;;;;5048185;28;20025;-71
2022/06/29 07:44:26;;;;;;;2.83;0.50;;;13.70;99.90;;;;;;5047605;28;20072;-71
2022/06/29 07:46:54;;;;;;;5.15;0.88;;;13.70;99.90;;;;;;5040742;28;20032;-71
2022/06/29 07:49:21;;;;;;;2.40;0.95;;;13.70;99.90;;;;;;5058004;28;20108;-71
2022/06/29 07:51:48;;;;;;;3.63;1.05;;;13.60;99.90;;;;;;5053198;28;20532;-71
2022/06/29 07:54:16;;;;;;;2.75;1.00;;;13.60;99.90;;;;;;5063138;28;20047;-72
2022/06/29 07:56:43;;;;;;;4.68;0.80;;;13.60;99.90;;;;;;5045600;28;20041;-71
2022/06/29 07:59:11;;;;;;;6.05;1.48;;;13.60;99.90;;;;;;5035144;28;20052;-71
2022/06/29 08:01:38;;;;;;;4.30;0.95;;;13.50;99.90;;;;;;5045134;28;20024;-71
2022/06/29 08:04:05;;;;;;;2.08;0.80;;;13.50;99.90;;;;;;5052737;28;20068;-71
2022/06/29 08:06:33;;;;;;;5.07;1.50;;;13.50;99.90;;;;;;5046329;28;20044;-71
2022/06/29 08:09:03;;;;;;;3.70;1.13;;;13.50;99.90;;;;;;5055364;28;20417;-72
2022/06/29 08:11:30;;;;;;;4.22;1.50;;;13.50;99.90;;;;;;5063030;28;20016;-71
2022/06/29 08:13:58;;;;;;;7.35;1.70;;;13.50;99.90;;;;;;5045372;28;20026;-72
2022/06/29 08:16:25;;;;;;;5.60;1.42;;;13.60;99.90;;;;;;5057292;28;20029;-72
2022/06/29 08:18:52;;;;;;;5.72;1.58;;;13.60;99.90;;;;;;5043413;28;20466;-71
2022/06/29 08:21:20;;;;;;;5.30;1.00;;;13.60;99.90;;;;;;5033861;28;20040;-71
2022/06/29 08:23:48;;;;;;;3.25;1.15;;;13.60;99.90;;;;;;5051159;28;20032;-71
2022/06/29 08:26:16;;;;;;;4.07;1.67;;;13.60;99.90;;;;;;5053857;28;20457;-71
2022/06/29 08:28:43;;;;;;;5.28;2.47;;;13.60;99.90;;;;;;5063814;28;20437;-72
2022/06/29 08:31:10;;;;;;;6.40;1.80;;;13.60;99.90;;;;;;5050654;28;20397;-72
2022/06/29 08:33:38;;;;;;;6.45;2.20;;;13.60;99.90;;;;;;5039335;28;20461;-72
2022/06/29 08:36:05;;;;;;;5.68;1.70;;;13.60;99.90;;;;;;5041105;28;20037;-72
2022/06/29 08:38:33;;;;;;;3.90;1.85;;;13.60;99.90;;;;;;5063237;28;20029;-72
2022/06/29 08:41:01;;;;;;;5.05;2.08;;;13.70;99.90;;;;;;5053186;28;20409;-72
2022/06/29 08:43:29;;;;;;;6.00;2.15;;;13.60;99.90;;;;;;5044233;28;20029;-71
2022/06/29 08:45:57;;;;;;;5.63;2.15;;;13.70;99.90;;;;;;5033627;28;20390;-71
2022/06/29 08:48:24;;;;;;;8.30;2.22;;;13.70;99.90;;;;;;5052702;28;20029;-71
2022/06/29 08:50:54;;;;;;;5.82;1.98;;;13.60;99.90;;;;;;5053539;28;20032;-71
2022/06/29 08:53:23;;;;;;;7.97;2.47;;;13.60;99.90;;;;;;5044958;28;20481;-70
2022/06/29 08:55:57;;;;;;;3.58;1.88;;;13.70;99.90;;;;;;5051281;28;20350;-71
2022/06/29 08:58:26;;;;;;;7.60;3.75;;;13.70;99.90;;;;;;5050931;28;20082;-71
2022/06/29 09:00:54;;;;;;;5.50;2.67;;;13.70;99.90;;;;;;5049701;28;20035;-71
2022/06/29 09:03:23;;;;;;;7.85;3.00;;;13.70;99.90;;;;;;5064325;28;20075;-71
2022/06/29 09:05:56;;;;;;;8.00;2.70;;;13.70;99.90;;;;;;5048854;28;20071;-71
2022/06/29 09:08:24;;;;;;;4.72;2.47;;;13.70;99.90;;;;;;5054902;28;20740;-71
2022/06/29 09:10:52;;;;;;;6.00;2.33;;;13.70;99.90;;;;;;5057643;28;20029;-71
2022/06/29 09:13:21;;;;;;;5.55;1.80;;;13.60;99.90;;;;;;5050669;28;20559;-71
2022/06/29 09:15:57;;;;;;;3.50;1.92;;;13.50;99.90;;;;;;5044395;28;20041;-71
2022/06/29 09:18:30;;;;;;;4.22;2.03;;;13.50;99.90;;;;;;5048810;28;20029;-70
2022/06/29 09:21:04;;;;;;;6.18;2.00;;;13.50;99.90;;;;;;5048127;28;20519;-71
2022/06/29 09:23:34;;;;;;;5.15;1.42;;;13.40;99.90;;;;;;5058101;28;20141;-70
2022/06/29 09:26:02;;;;;;;4.53;1.88;;;13.40;99.90;;;;;;5067391;28;20033;-71
2022/06/29 09:28:32;;;;;;;4.03;1.83;;;13.40;99.90;;;;;;5062463;28;20481;-70
2022/06/29 09:31:00;;;;;;;7.05;2.15;;;13.40;99.90;;;;;;5037605;28;20067;-69
2022/06/29 09:33:30;;;;;;;5.07;2.10;;;13.40;99.90;;;;;;5036822;28;20064;-69
2022/06/29 09:36:18;;;;;;;5.18;1.30;;;13.40;99.90;;;;;;5050259;28;20041;-69
2022/06/29 09:38:46;;;;;;;4.15;1.33;;;13.40;99.90;;;;;;5049324;28;20038;-69
2022/06/29 09:41:15;;;;;;;4.65;1.77;;;13.40;99.90;;;;;;5043094;28;20027;-69
2022/06/29 09:43:47;;;;;;;2.90;1.50;;;13.40;99.90;;;;;;5043369;28;20369;-69
2022/06/29 09:46:17;;;;;;;3.35;1.42;;;13.40;99.90;;;;;;5067951;28;20040;-69
2022/06/29 09:48:45;;;;;;;7.85;1.83;;;13.40;99.90;;;;;;5033218;28;20021;-69
2022/06/29 09:51:32;;;;;;;5.55;1.88;;;13.40;99.90;;;;;;5051599;28;20113;-69
2022/06/29 09:54:10;;;;;;;3.95;1.63;;;13.40;99.90;;;;;;5046812;28;20103;-69
2022/06/29 09:56:47;;;;;;;6.00;1.40;;;13.50;99.90;;;;;;5034231;28;20042;-69
2022/06/29 10:02:37;;;;;;;4.47;1.50;;;13.50;99.90;;;;;;5041904;28;20076;-69
2022/06/29 10:05:12;;;;;;;4.00;1.63;;;13.50;99.90;;;;;;5058968;28;20021;-69
2022/06/29 10:07:42;;;;;;;5.72;1.30;;;13.40;99.90;;;;;;5055782;28;20603;-69
2022/06/29 10:10:21;;;;;;;3.95;1.60;;;13.40;99.90;;;;;;5051380;28;20052;-69
2022/06/29 10:16:02;;;;;;;4.25;1.20;;;13.30;99.90;;;;;;5067015;28;20043;-69
2022/06/29 10:18:51;;;;;;;3.97;1.60;;;13.30;99.90;;;;;;5061808;28;20029;-69
2022/06/29 10:21:30;;;;;;;5.05;1.23;;;13.30;99.90;;;;;;5039237;28;20029;-70
2022/06/29 10:24:03;;;;;;;4.53;1.88;;;13.20;99.90;;;;;;5048818;28;20024;-69
2022/06/29 10:26:31;;;;;;;7.22;1.50;;;13.20;99.90;;;;;;5052959;28;20102;-69
2022/06/29 10:29:22;;;;;;;4.07;1.77;;;13.20;99.90;;;;;;5050327;28;20115;-69
2022/06/29 10:31:59;;;;;;;3.78;1.73;;;13.10;99.90;;;;;;5042630;28;20098;-69
2022/06/29 10:37:14;;;;;;;3.80;1.70;;;13.00;99.90;;;;;;5043463;28;20037;-69
2022/06/29 10:45:49;;;;;;;7.00;1.92;;;12.90;99.90;;;;;;5062532;28;20293;-69
2022/06/29 10:48:20;;;;;;;7.80;1.60;;;12.90;99.90;;;;;;5055118;28;20040;-70
2022/06/29 10:50:48;;;;;;;4.38;1.70;;;12.90;99.90;;;;;;5062367;28;20477;-69
2022/06/29 10:53:20;;;;;;;6.18;2.15;;;13.00;99.90;;;;;;5060805;28;20112;-70
2022/06/29 10:55:51;;;;;;;4.00;1.92;;;12.80;99.90;;;;;;5055072;28;20051;-70
2022/06/29 10:58:21;;;;;;;5.95;2.42;;;12.90;99.90;;;;;;5051460;28;20025;-70
2022/06/29 11:00:52;;;;;;;5.43;2.05;;;12.80;99.90;;;;;;5065212;28;20040;-70
2022/06/29 11:03:22;;;;;;;7.07;2.50;;;12.80;99.90;;;;;;5051354;28;20020;-70
2022/06/29 11:17:39;;;;;;;5.50;3.03;;;12.90;99.90;;;;;;5047434;28;20516;-69
2022/06/29 11:19:54;;;;;;;3.67;1.52;;;12.90;99.90;;;;;;5051846;28;20021;-69
2022/06/29 11:22:22;;;;;;;3.90;1.63;;;13.00;99.90;;;;;;5046285;28;20033;-69
2022/06/29 11:25:00;;;;;;;3.58;1.58;;;13.00;99.90;;;;;;5051168;28;20029;-69
2022/06/29 11:27:39;;;;;;;5.22;2.45;;;13.10;99.90;;;;;;5034365;28;20033;-69
2022/06/29 11:30:12;;;;;;;4.65;1.60;;;13.10;99.90;;;;;;5044635;28;20370;-69
2022/06/29 11:32:42;;;;;;;2.92;1.75;;;13.10;99.90;;;;;;5049912;28;20159;-69
2022/06/29 11:35:11;;;;;;;3.72;1.48;;;13.00;99.90;;;;;;5061316;28;20060;-69
2022/06/29 11:38:01;;;;;;;10.63;1.80;;;13.00;99.90;;;;;;5058954;28;20032;-69
2022/06/29 11:40:46;;;;;;;2.97;1.52;;;13.00;99.90;;;;;;5058256;28;20033;-69
2022/06/29 11:43:17;;;;;;;7.05;2.03;;;13.10;99.90;;;;;;5069305;28;20415;-69
2022/06/29 11:45:49;;;;;;;4.65;2.30;;;13.10;99.90;;;;;;5049242;28;20025;-70
2022/06/29 11:48:24;;;;;;;5.78;1.65;;;13.10;99.90;;;;;;5066047;28;20020;-69
2022/06/29 11:51:01;;;;;;;3.63;1.73;;;13.00;99.90;;;;;;5044010;28;20152;-69
2022/06/29 11:53:47;;;;;;;4.00;1.58;;;13.00;99.90;;;;;;5038259;28;20033;-69
2022/06/29 11:56:26;;;;;;;5.47;1.70;;;13.00;99.90;;;;;;5053739;28;20087;-69
2022/06/29 11:58:57;;;;;;;5.25;1.77;;;12.90;99.90;;;;;;5052308;28;20029;-69
2022/06/29 12:01:26;;;;;;;4.90;1.70;;;12.90;99.90;;;;;;5035473;28;20034;-70
2022/06/29 12:03:53;;;;;;;3.83;1.73;;;12.90;99.90;;;;;;5035319;28;20032;-69
2022/06/29 12:06:23;;;;;;;4.57;2.33;;;12.80;99.90;;;;;;5044316;28;20036;-69
2022/06/29 12:08:52;;;;;;;5.00;2.05;;;12.80;99.90;;;;;;5059157;28;20025;-70
2022/06/29 12:11:24;;;;;;;6.65;2.67;;;12.70;99.90;;;;;;5049787;28;20056;-71
2022/06/29 12:13:51;;;;;;;6.70;2.10;;;12.70;99.90;;;;;;5054732;28;20028;-70
2022/06/29 12:16:19;;;;;;;6.05;2.28;;;12.70;99.90;;;;;;5046059;28;20033;-70
2022/06/29 12:18:46;;;;;;;4.22;2.00;;;12.60;99.90;;;;;;5050001;28;20056;-70
2022/06/29 12:21:13;;;;;;;4.32;2.22;;;12.60;99.90;;;;;;5061946;28;20028;-70
2022/06/29 12:23:41;;;;;;;6.35;2.38;;;12.60;99.90;;;;;;5047754;28;20030;-70
2022/06/29 12:26:09;;;;;;;3.92;2.20;;;12.60;99.90;;;;;;5064499;28;20403;-70
2022/06/29 12:28:38;;;;;;;6.43;2.42;;;12.60;99.90;;;;;;5048438;28;20040;-70
2022/06/29 12:31:07;;;;;;;5.05;2.80;;;12.50;99.90;;;;;;5053844;28;20032;-70
2022/06/29 12:33:34;;;;;;;5.32;2.60;;;12.50;99.90;;;;;;5052023;28;20036;-70
2022/06/29 12:36:01;;;;;;;4.97;3.28;;;12.40;99.90;;;;;;5048010;28;20398;-69
2022/06/29 12:38:29;;;;;;;6.03;3.00;;;12.40;99.90;;;;;;5050392;28;20025;-69
2022/06/29 12:40:56;;;;;;;5.07;2.78;;;12.40;99.90;;;;;;5054840;28;20017;-69
2022/06/29 12:43:23;;;;;;;5.32;2.70;;;12.30;99.90;;;;;;5056100;28;20029;-69
2022/06/29 12:45:51;;;;;;;6.65;2.75;;;12.30;99.90;;;;;;5043771;28;20068;-69
2022/06/29 12:48:19;;;;;;;7.10;2.63;;;12.40;99.90;;;;;;5050655;28;20489;-69
2022/06/29 12:50:46;;;;;;;6.05;3.42;;;12.30;99.90;;;;;;5039942;28;20060;-69
2022/06/29 12:53:14;;;;;;;4.40;2.30;;;12.30;99.90;;;;;;5039553;28;20032;-69
2022/06/29 12:55:41;;;;;;;7.97;3.08;;;12.30;99.90;;;;;;5054841;28;20053;-69
2022/06/29 12:58:09;;;;;;;5.90;2.65;;;12.20;99.90;;;;;;5046207;28;20065;-69
2022/06/29 13:00:36;;;;;;;5.18;2.38;;;12.10;99.90;;;;;;5043155;28;20033;-69
2022/06/29 13:03:03;;;;;;;6.75;2.67;;;12.10;99.90;;;;;;5044092;28;20048;-68
2022/06/29 13:05:31;;;;;;;5.53;2.35;;;12.10;99.90;;;;;;5058297;28;20021;-68
2022/06/29 13:07:59;;;;;;;8.43;3.47;;;12.10;99.90;;;;;;5052719;28;20036;-69
2022/06/29 13:10:28;;;;;;;6.35;2.80;;;12.10;99.90;;;;;;5051232;28;20016;-69
2022/06/29 13:12:55;;;;;;;4.93;2.95;;;12.00;99.90;;;;;;5059916;28;20111;-69
2022/06/29 13:15:22;;;;;;;6.03;2.70;;;12.00;99.90;;;;;;5044487;28;20016;-69
2022/06/29 13:17:50;;;;;;;7.07;2.90;;;12.00;99.90;;;;;;5045567;28;20470;-69
2022/06/29 13:20:17;;;;;;;5.55;2.63;;;12.00;99.90;;;;;;5040866;28;20504;-69
2022/06/29 13:22:44;;;;;;;5.72;2.83;;;11.90;99.90;;;;;;5050235;28;20035;-69
2022/06/29 13:25:11;;;;;;;6.97;3.60;;;11.90;99.90;;;;;;5042875;28;20036;-69
2022/06/29 13:27:39;;;;;;;7.88;3.40;;;11.80;99.90;;;;;;5037074;28;20061;-69